sensor_id;sensor_type;location;lat;lon;timestamp;temperature;humidity
70246;SHT30;57637;49.272;8.590;2023-05-07T00:00:09;15.22;76.60
70246;SHT30;57637;49.272;8.590;2023-05-07T00:02:36;15.22;76.64
70246;SHT30;57637;49.272;8.590;2023-05-07T00:05:02;15.20;76.80
70246;SHT30;57637;49.272;8.590;2023-05-07T00:07:28;15.13;77.16
70246;SHT30;57637;49.272;8.590;2023-05-07T00:09:54;15.00;77.98
70246;SHT30;57637;49.272;8.590;2023-05-07T00:12:19;14.69;79.69
70246;SHT30;57637;49.272;8.590;2023-05-07T00:14:45;14.55;80.26
70246;SHT30;57637;49.272;8.590;2023-05-07T00:17:10;14.44;80.47
70246;SHT30;57637;49.272;8.590;2023-05-07T00:19:36;14.35;81.21
70246;SHT30;57637;49.272;8.590;2023-05-07T00:22:01;14.32;81.31
70246;SHT30;57637;49.272;8.590;2023-05-07T00:24:27;14.26;81.18
70246;SHT30;57637;49.272;8.590;2023-05-07T00:26:52;14.31;81.07
70246;SHT30;57637;49.272;8.590;2023-05-07T00:29:18;14.36;80.76
70246;SHT30;57637;49.272;8.590;2023-05-07T00:31:43;14.42;80.22
70246;SHT30;57637;49.272;8.590;2023-05-07T00:34:08;14.44;80.09
70246;SHT30;57637;49.272;8.590;2023-05-07T00:36:34;14.46;80.10
70246;SHT30;57637;49.272;8.590;2023-05-07T00:38:59;14.44;80.16
70246;SHT30;57637;49.272;8.590;2023-05-07T00:41:27;14.39;80.20
70246;SHT30;57637;49.272;8.590;2023-05-07T00:43:52;14.44;80.10
70246;SHT30;57637;49.272;8.590;2023-05-07T00:46:18;14.49;79.44
70246;SHT30;57637;49.272;8.590;2023-05-07T00:48:46;14.39;80.33
70246;SHT30;57637;49.272;8.590;2023-05-07T00:51:12;14.29;80.78
70246;SHT30;57637;49.272;8.590;2023-05-07T00:53:37;14.24;81.29
70246;SHT30;57637;49.272;8.590;2023-05-07T00:56:03;14.21;80.93
70246;SHT30;57637;49.272;8.590;2023-05-07T00:58:31;14.31;80.52
70246;SHT30;57637;49.272;8.590;2023-05-07T01:00:57;14.44;79.63
70246;SHT30;57637;49.272;8.590;2023-05-07T01:03:23;14.46;79.31
70246;SHT30;57637;49.272;8.590;2023-05-07T01:05:48;14.46;79.18
70246;SHT30;57637;49.272;8.590;2023-05-07T01:08:16;14.44;79.21
70246;SHT30;57637;49.272;8.590;2023-05-07T01:10:42;14.41;79.24
70246;SHT30;57637;49.272;8.590;2023-05-07T01:13:09;14.36;79.29
70246;SHT30;57637;49.272;8.590;2023-05-07T01:15:37;14.36;79.20
70246;SHT30;57637;49.272;8.590;2023-05-07T01:18:03;14.35;79.18
70246;SHT30;57637;49.272;8.590;2023-05-07T01:20:29;14.32;79.07
70246;SHT30;57637;49.272;8.590;2023-05-07T01:22:55;14.29;78.96
70246;SHT30;57637;49.272;8.590;2023-05-07T01:25:22;14.29;78.98
70246;SHT30;57637;49.272;8.590;2023-05-07T01:27:48;14.24;79.37
70246;SHT30;57637;49.272;8.590;2023-05-07T01:30:14;14.22;79.41
70246;SHT30;57637;49.272;8.590;2023-05-07T01:32:41;14.18;79.88
70246;SHT30;57637;49.272;8.590;2023-05-07T01:35:13;14.10;80.31
70246;SHT30;57637;49.272;8.590;2023-05-07T01:37:43;14.01;80.65
70246;SHT30;57637;49.272;8.590;2023-05-07T01:40:10;13.94;80.63
70246;SHT30;57637;49.272;8.590;2023-05-07T01:42:35;13.83;81.05
70246;SHT30;57637;49.272;8.590;2023-05-07T01:45:01;13.83;81.02
70246;SHT30;57637;49.272;8.590;2023-05-07T01:47:27;13.78;81.33
70246;SHT30;57637;49.272;8.590;2023-05-07T01:49:54;13.77;81.57
70246;SHT30;57637;49.272;8.590;2023-05-07T01:52:20;13.70;81.35
70246;SHT30;57637;49.272;8.590;2023-05-07T01:54:45;13.67;81.64
70246;SHT30;57637;49.272;8.590;2023-05-07T01:57:11;13.62;82.20
70246;SHT30;57637;49.272;8.590;2023-05-07T01:59:36;13.56;82.31
70246;SHT30;57637;49.272;8.590;2023-05-07T02:02:01;13.50;82.47
70246;SHT30;57637;49.272;8.590;2023-05-07T02:04:27;13.50;82.47
70246;SHT30;57637;49.272;8.590;2023-05-07T02:06:52;13.59;81.69
70246;SHT30;57637;49.272;8.590;2023-05-07T02:09:18;13.75;80.52
70246;SHT30;57637;49.272;8.590;2023-05-07T02:11:43;13.93;79.82
70246;SHT30;57637;49.272;8.590;2023-05-07T02:14:09;14.01;79.45
70246;SHT30;57637;49.272;8.590;2023-05-07T02:16:35;14.04;79.14
70246;SHT30;57637;49.272;8.590;2023-05-07T02:19:00;14.10;79.10
70246;SHT30;57637;49.272;8.590;2023-05-07T02:21:25;14.07;79.11
70246;SHT30;57637;49.272;8.590;2023-05-07T02:23:51;14.11;78.95
70246;SHT30;57637;49.272;8.590;2023-05-07T02:26:16;14.15;78.91
70246;SHT30;57637;49.272;8.590;2023-05-07T02:28:41;14.15;78.77
70246;SHT30;57637;49.272;8.590;2023-05-07T02:31:07;14.15;78.77
70246;SHT30;57637;49.272;8.590;2023-05-07T02:33:32;14.14;78.90
70246;SHT30;57637;49.272;8.590;2023-05-07T02:36:06;14.13;78.90
70246;SHT30;57637;49.272;8.590;2023-05-07T02:38:34;14.13;78.86
70246;SHT30;57637;49.272;8.590;2023-05-07T02:41:00;14.14;78.74
70246;SHT30;57637;49.272;8.590;2023-05-07T02:43:25;14.13;78.76
70246;SHT30;57637;49.272;8.590;2023-05-07T02:46:04;14.07;78.89
70246;SHT30;57637;49.272;8.590;2023-05-07T02:48:30;14.05;78.93
70246;SHT30;57637;49.272;8.590;2023-05-07T02:50:56;14.03;79.08
70246;SHT30;57637;49.272;8.590;2023-05-07T02:53:21;14.01;79.00
70246;SHT30;57637;49.272;8.590;2023-05-07T02:55:47;13.88;79.22
70246;SHT30;57637;49.272;8.590;2023-05-07T02:58:12;13.44;81.51
70246;SHT30;57637;49.272;8.590;2023-05-07T03:00:37;13.11;81.96
70246;SHT30;57637;49.272;8.590;2023-05-07T03:03:03;12.85;82.81
70246;SHT30;57637;49.272;8.590;2023-05-07T03:05:28;12.81;83.52
70246;SHT30;57637;49.272;8.590;2023-05-07T03:07:53;12.81;82.99
70246;SHT30;57637;49.272;8.590;2023-05-07T03:10:19;12.72;83.55
70246;SHT30;57637;49.272;8.590;2023-05-07T03:12:44;12.65;83.79
70246;SHT30;57637;49.272;8.590;2023-05-07T03:15:10;12.82;83.42
70246;SHT30;57637;49.272;8.590;2023-05-07T03:17:37;12.87;83.29
70246;SHT30;57637;49.272;8.590;2023-05-07T03:20:03;12.91;83.14
70246;SHT30;57637;49.272;8.590;2023-05-07T03:22:29;12.92;82.98
70246;SHT30;57637;49.272;8.590;2023-05-07T03:24:54;12.96;83.01
70246;SHT30;57637;49.272;8.590;2023-05-07T03:27:19;12.95;82.90
70246;SHT30;57637;49.272;8.590;2023-05-07T03:29:45;12.82;82.90
70246;SHT30;57637;49.272;8.590;2023-05-07T03:32:10;12.62;83.12
70246;SHT30;57637;49.272;8.590;2023-05-07T03:34:35;12.34;83.92
70246;SHT30;57637;49.272;8.590;2023-05-07T03:37:01;12.26;84.77
70246;SHT30;57637;49.272;8.590;2023-05-07T03:39:26;12.24;84.92
70246;SHT30;57637;49.272;8.590;2023-05-07T03:41:52;12.30;84.85
70246;SHT30;57637;49.272;8.590;2023-05-07T03:44:17;12.40;84.74
70246;SHT30;57637;49.272;8.590;2023-05-07T03:46:43;12.50;84.46
70246;SHT30;57637;49.272;8.590;2023-05-07T03:49:08;12.42;84.30
70246;SHT30;57637;49.272;8.590;2023-05-07T03:51:33;12.44;84.45
70246;SHT30;57637;49.272;8.590;2023-05-07T03:54:01;12.42;84.52
70246;SHT30;57637;49.272;8.590;2023-05-07T03:56:26;12.26;84.29
70246;SHT30;57637;49.272;8.590;2023-05-07T03:58:52;12.12;85.63
70246;SHT30;57637;49.272;8.590;2023-05-07T04:01:18;12.00;85.28
70246;SHT30;57637;49.272;8.590;2023-05-07T04:03:43;11.97;85.84
70246;SHT30;57637;49.272;8.590;2023-05-07T04:06:09;11.94;85.87
70246;SHT30;57637;49.272;8.590;2023-05-07T04:08:34;11.94;85.96
70246;SHT30;57637;49.272;8.590;2023-05-07T04:11:00;11.99;85.97
70246;SHT30;57637;49.272;8.590;2023-05-07T04:13:25;12.03;86.10
70246;SHT30;57637;49.272;8.590;2023-05-07T04:15:51;12.12;86.05
70246;SHT30;57637;49.272;8.590;2023-05-07T04:18:17;12.23;85.68
70246;SHT30;57637;49.272;8.590;2023-05-07T04:20:42;12.38;85.25
70246;SHT30;57637;49.272;8.590;2023-05-07T04:23:08;12.57;84.84
70246;SHT30;57637;49.272;8.590;2023-05-07T04:25:33;12.80;83.90
70246;SHT30;57637;49.272;8.590;2023-05-07T04:27:59;13.01;83.23
70246;SHT30;57637;49.272;8.590;2023-05-07T04:30:24;13.23;82.50
70246;SHT30;57637;49.272;8.590;2023-05-07T04:32:50;13.36;82.10
70246;SHT30;57637;49.272;8.590;2023-05-07T04:35:16;13.49;81.84
70246;SHT30;57637;49.272;8.590;2023-05-07T04:37:41;13.02;82.85
70246;SHT30;57637;49.272;8.590;2023-05-07T04:40:07;13.16;82.68
70246;SHT30;57637;49.272;8.590;2023-05-07T04:42:32;13.57;81.84
70246;SHT30;57637;49.272;8.590;2023-05-07T04:44:58;14.04;80.91
70246;SHT30;57637;49.272;8.590;2023-05-07T04:47:23;14.24;79.96
70246;SHT30;57637;49.272;8.590;2023-05-07T04:49:48;14.59;78.87
70246;SHT30;57637;49.272;8.590;2023-05-07T04:52:14;14.26;79.72
70246;SHT30;57637;49.272;8.590;2023-05-07T04:54:40;14.51;78.42
70246;SHT30;57637;49.272;8.590;2023-05-07T04:57:05;14.66;77.88
70246;SHT30;57637;49.272;8.590;2023-05-07T04:59:31;14.59;77.68
70246;SHT30;57637;49.272;8.590;2023-05-07T05:01:57;14.59;77.71
70246;SHT30;57637;49.272;8.590;2023-05-07T05:04:23;14.56;77.89
70246;SHT30;57637;49.272;8.590;2023-05-07T05:06:48;14.51;77.82
70246;SHT30;57637;49.272;8.590;2023-05-07T05:09:13;14.78;77.72
70246;SHT30;57637;49.272;8.590;2023-05-07T05:11:40;14.56;77.90
70246;SHT30;57637;49.272;8.590;2023-05-07T05:14:05;14.73;77.39
70246;SHT30;57637;49.272;8.590;2023-05-07T05:16:30;14.85;77.41
70246;SHT30;57637;49.272;8.590;2023-05-07T05:18:56;14.86;77.40
70246;SHT30;57637;49.272;8.590;2023-05-07T05:21:21;15.04;76.46
70246;SHT30;57637;49.272;8.590;2023-05-07T05:23:46;15.13;76.19
70246;SHT30;57637;49.272;8.590;2023-05-07T05:26:12;15.29;75.65
70246;SHT30;57637;49.272;8.590;2023-05-07T05:28:38;15.47;75.01
70246;SHT30;57637;49.272;8.590;2023-05-07T05:31:04;15.38;75.71
70246;SHT30;57637;49.272;8.590;2023-05-07T05:33:30;15.44;75.84
70246;SHT30;57637;49.272;8.590;2023-05-07T05:35:55;15.30;75.70
70246;SHT30;57637;49.272;8.590;2023-05-07T05:38:21;15.26;76.45
70246;SHT30;57637;49.272;8.590;2023-05-07T05:40:46;15.55;75.72
70246;SHT30;57637;49.272;8.590;2023-05-07T05:43:12;15.27;75.87
70246;SHT30;57637;49.272;8.590;2023-05-07T05:45:37;15.47;75.73
70246;SHT30;57637;49.272;8.590;2023-05-07T05:48:02;15.61;75.28
70246;SHT30;57637;49.272;8.590;2023-05-07T05:50:28;15.71;74.83
70246;SHT30;57637;49.272;8.590;2023-05-07T05:52:53;15.81;73.90
70246;SHT30;57637;49.272;8.590;2023-05-07T05:55:19;15.90;74.10
70246;SHT30;57637;49.272;8.590;2023-05-07T05:57:44;16.19;73.50
70246;SHT30;57637;49.272;8.590;2023-05-07T06:00:10;15.94;73.73
70246;SHT30;57637;49.272;8.590;2023-05-07T06:02:36;15.94;73.68
70246;SHT30;57637;49.272;8.590;2023-05-07T06:05:02;16.09;73.10
70246;SHT30;57637;49.272;8.590;2023-05-07T06:07:28;16.12;73.13
70246;SHT30;57637;49.272;8.590;2023-05-07T06:09:54;16.42;72.72
70246;SHT30;57637;49.272;8.590;2023-05-07T06:12:20;16.33;72.52
70246;SHT30;57637;49.272;8.590;2023-05-07T06:14:46;16.33;72.48
70246;SHT30;57637;49.272;8.590;2023-05-07T06:17:11;16.23;72.99
70246;SHT30;57637;49.272;8.590;2023-05-07T06:19:37;16.29;72.52
70246;SHT30;57637;49.272;8.590;2023-05-07T06:22:02;16.67;72.38
70246;SHT30;57637;49.272;8.590;2023-05-07T06:24:27;16.93;71.07
70246;SHT30;57637;49.272;8.590;2023-05-07T06:26:53;16.91;71.01
70246;SHT30;57637;49.272;8.590;2023-05-07T06:29:19;16.70;71.43
70246;SHT30;57637;49.272;8.590;2023-05-07T06:31:44;16.49;72.08
70246;SHT30;57637;49.272;8.590;2023-05-07T06:34:10;16.42;72.45
70246;SHT30;57637;49.272;8.590;2023-05-07T06:36:39;16.64;72.47
70246;SHT30;57637;49.272;8.590;2023-05-07T06:39:04;16.67;72.16
70246;SHT30;57637;49.272;8.590;2023-05-07T06:41:30;16.87;71.69
70246;SHT30;57637;49.272;8.590;2023-05-07T06:43:55;16.62;72.62
70246;SHT30;57637;49.272;8.590;2023-05-07T06:46:20;17.31;70.62
70246;SHT30;57637;49.272;8.590;2023-05-07T06:48:46;17.54;70.62
70246;SHT30;57637;49.272;8.590;2023-05-07T06:51:11;17.52;69.94
70246;SHT30;57637;49.272;8.590;2023-05-07T06:53:36;17.25;70.50
70246;SHT30;57637;49.272;8.590;2023-05-07T06:56:02;17.28;70.49
70246;SHT30;57637;49.272;8.590;2023-05-07T06:58:27;17.21;71.01
70246;SHT30;57637;49.272;8.590;2023-05-07T07:00:53;17.25;70.55
70246;SHT30;57637;49.272;8.590;2023-05-07T07:03:18;17.10;71.16
70246;SHT30;57637;49.272;8.590;2023-05-07T07:05:43;17.71;70.70
70246;SHT30;57637;49.272;8.590;2023-05-07T07:08:09;17.65;69.98
70246;SHT30;57637;49.272;8.590;2023-05-07T07:10:35;17.93;69.02
70246;SHT30;57637;49.272;8.590;2023-05-07T07:13:00;18.07;68.61
70246;SHT30;57637;49.272;8.590;2023-05-07T07:15:26;17.90;69.16
70246;SHT30;57637;49.272;8.590;2023-05-07T07:17:51;18.09;68.55
70246;SHT30;57637;49.272;8.590;2023-05-07T07:20:17;18.53;67.85
70246;SHT30;57637;49.272;8.590;2023-05-07T07:22:42;18.67;67.04
70246;SHT30;57637;49.272;8.590;2023-05-07T07:25:07;19.11;65.75
70246;SHT30;57637;49.272;8.590;2023-05-07T07:27:33;19.10;64.84
70246;SHT30;57637;49.272;8.590;2023-05-07T07:29:59;19.26;65.21
70246;SHT30;57637;49.272;8.590;2023-05-07T07:32:24;19.62;64.68
70246;SHT30;57637;49.272;8.590;2023-05-07T07:34:50;19.51;64.15
70246;SHT30;57637;49.272;8.590;2023-05-07T07:37:15;19.59;64.83
70246;SHT30;57637;49.272;8.590;2023-05-07T07:39:41;19.29;65.41
70246;SHT30;57637;49.272;8.590;2023-05-07T07:42:06;20.45;62.26
70246;SHT30;57637;49.272;8.590;2023-05-07T07:44:32;20.51;63.17
70246;SHT30;57637;49.272;8.590;2023-05-07T07:46:57;20.72;62.42
70246;SHT30;57637;49.272;8.590;2023-05-07T07:49:22;21.03;59.96
70246;SHT30;57637;49.272;8.590;2023-05-07T07:51:48;20.68;61.10
70246;SHT30;57637;49.272;8.590;2023-05-07T07:54:13;20.63;61.12
70246;SHT30;57637;49.272;8.590;2023-05-07T07:56:39;21.05;60.08
70246;SHT30;57637;49.272;8.590;2023-05-07T07:59:04;20.65;61.71
70246;SHT30;57637;49.272;8.590;2023-05-07T08:01:30;21.22;60.87
70246;SHT30;57637;49.272;8.590;2023-05-07T08:03:56;20.58;60.05
70246;SHT30;57637;49.272;8.590;2023-05-07T08:06:23;21.51;59.67
70246;SHT30;57637;49.272;8.590;2023-05-07T08:08:49;20.74;60.48
70246;SHT30;57637;49.272;8.590;2023-05-07T08:11:14;21.12;59.19
70246;SHT30;57637;49.272;8.590;2023-05-07T08:13:40;21.36;60.11
70246;SHT30;57637;49.272;8.590;2023-05-07T08:16:05;21.74;59.13
70246;SHT30;57637;49.272;8.590;2023-05-07T08:18:31;21.40;58.96
70246;SHT30;57637;49.272;8.590;2023-05-07T08:20:56;20.88;61.69
70246;SHT30;57637;49.272;8.590;2023-05-07T08:23:22;21.12;59.50
70246;SHT30;57637;49.272;8.590;2023-05-07T08:25:48;21.05;60.08
70246;SHT30;57637;49.272;8.590;2023-05-07T08:28:14;21.90;58.95
70246;SHT30;57637;49.272;8.590;2023-05-07T08:30:40;22.14;57.71
70246;SHT30;57637;49.272;8.590;2023-05-07T08:33:05;22.07;58.02
70246;SHT30;57637;49.272;8.590;2023-05-07T08:35:31;22.41;56.89
70246;SHT30;57637;49.272;8.590;2023-05-07T08:37:56;22.88;56.66
70246;SHT30;57637;49.272;8.590;2023-05-07T08:40:23;21.67;58.89
70246;SHT30;57637;49.272;8.590;2023-05-07T08:42:50;21.74;57.78
70246;SHT30;57637;49.272;8.590;2023-05-07T08:45:17;21.91;57.03
70246;SHT30;57637;49.272;8.590;2023-05-07T08:47:44;22.69;55.39
70246;SHT30;57637;49.272;8.590;2023-05-07T08:50:15;22.01;57.82
70246;SHT30;57637;49.272;8.590;2023-05-07T08:52:41;22.08;57.85
70246;SHT30;57637;49.272;8.590;2023-05-07T08:55:07;23.71;54.64
70246;SHT30;57637;49.272;8.590;2023-05-07T08:57:33;23.46;55.44
70246;SHT30;57637;49.272;8.590;2023-05-07T08:59:59;23.14;56.13
70246;SHT30;57637;49.272;8.590;2023-05-07T09:02:24;23.12;55.29
70246;SHT30;57637;49.272;8.590;2023-05-07T09:04:50;22.53;57.22
70246;SHT30;57637;49.272;8.590;2023-05-07T09:07:16;23.10;55.50
70246;SHT30;57637;49.272;8.590;2023-05-07T09:09:41;22.96;56.25
70246;SHT30;57637;49.272;8.590;2023-05-07T09:12:09;22.85;57.56
70246;SHT30;57637;49.272;8.590;2023-05-07T09:14:34;23.17;56.20
70246;SHT30;57637;49.272;8.590;2023-05-07T09:17:00;23.86;54.64
70246;SHT30;57637;49.272;8.590;2023-05-07T09:19:26;23.24;55.95
70246;SHT30;57637;49.272;8.590;2023-05-07T09:21:58;24.43;53.85
70246;SHT30;57637;49.272;8.590;2023-05-07T09:24:28;23.09;55.82
70246;SHT30;57637;49.272;8.590;2023-05-07T09:26:58;23.22;55.54
70246;SHT30;57637;49.272;8.590;2023-05-07T09:29:25;24.35;53.40
70246;SHT30;57637;49.272;8.590;2023-05-07T09:31:51;24.09;53.13
70246;SHT30;57637;49.272;8.590;2023-05-07T09:34:16;23.86;54.50
70246;SHT30;57637;49.272;8.590;2023-05-07T09:36:41;23.51;55.43
70246;SHT30;57637;49.272;8.590;2023-05-07T09:39:07;23.10;55.75
70246;SHT30;57637;49.272;8.590;2023-05-07T09:41:32;23.16;56.69
70246;SHT30;57637;49.272;8.590;2023-05-07T09:44:07;23.19;55.83
70246;SHT30;57637;49.272;8.590;2023-05-07T09:46:34;22.82;56.64
70246;SHT30;57637;49.272;8.590;2023-05-07T09:49:02;22.71;57.20
70246;SHT30;57637;49.272;8.590;2023-05-07T09:51:34;22.95;56.81
70246;SHT30;57637;49.272;8.590;2023-05-07T09:54:06;23.19;55.78
70246;SHT30;57637;49.272;8.590;2023-05-07T09:56:32;23.43;56.28
70246;SHT30;57637;49.272;8.590;2023-05-07T09:58:59;23.79;55.63
70246;SHT30;57637;49.272;8.590;2023-05-07T10:01:25;23.51;55.84
70246;SHT30;57637;49.272;8.590;2023-05-07T10:03:52;23.31;56.97
70246;SHT30;57637;49.272;8.590;2023-05-07T10:06:19;23.36;55.90
70246;SHT30;57637;49.272;8.590;2023-05-07T10:08:45;23.60;56.18
70246;SHT30;57637;49.272;8.590;2023-05-07T10:11:11;23.53;56.63
70246;SHT30;57637;49.272;8.590;2023-05-07T10:13:37;23.65;55.60
70246;SHT30;57637;49.272;8.590;2023-05-07T10:16:03;23.34;56.18
70246;SHT30;57637;49.272;8.590;2023-05-07T10:18:30;23.47;56.41
70246;SHT30;57637;49.272;8.590;2023-05-07T10:21:07;23.85;55.22
70246;SHT30;57637;49.272;8.590;2023-05-07T10:23:36;24.80;54.39
70246;SHT30;57637;49.272;8.590;2023-05-07T10:26:21;23.91;53.15
70246;SHT30;57637;49.272;8.590;2023-05-07T10:28:50;23.95;53.59
70246;SHT30;57637;49.272;8.590;2023-05-07T10:34:29;24.83;53.26
70246;SHT30;57637;49.272;8.590;2023-05-07T10:36:59;24.72;51.98
70246;SHT30;57637;49.272;8.590;2023-05-07T10:39:25;24.55;51.46
70246;SHT30;57637;49.272;8.590;2023-05-07T10:41:52;24.45;52.50
70246;SHT30;57637;49.272;8.590;2023-05-07T10:44:27;23.85;53.88
70246;SHT30;57637;49.272;8.590;2023-05-07T10:47:06;24.84;52.74
70246;SHT30;57637;49.272;8.590;2023-05-07T10:49:34;24.45;52.64
70246;SHT30;57637;49.272;8.590;2023-05-07T10:52:13;24.62;52.98
70246;SHT30;57637;49.272;8.590;2023-05-07T10:54:41;24.24;53.30
70246;SHT30;57637;49.272;8.590;2023-05-07T11:00:00;23.94;53.88
70246;SHT30;57637;49.272;8.590;2023-05-07T11:05:27;24.35;52.80
70246;SHT30;57637;49.272;8.590;2023-05-07T11:07:58;24.82;52.49
70246;SHT30;57637;49.272;8.590;2023-05-07T11:11:10;25.06;52.32
70246;SHT30;57637;49.272;8.590;2023-05-07T11:13:14;24.29;51.89
70246;SHT30;57637;49.272;8.590;2023-05-07T11:15:49;24.45;52.52
70246;SHT30;57637;49.272;8.590;2023-05-07T11:18:16;24.52;51.50
70246;SHT30;57637;49.272;8.590;2023-05-07T11:20:55;24.55;52.31
70246;SHT30;57637;49.272;8.590;2023-05-07T11:28:36;24.48;51.53
70246;SHT30;57637;49.272;8.590;2023-05-07T11:31:03;24.65;51.57
70246;SHT30;57637;49.272;8.590;2023-05-07T11:33:29;24.57;51.23
70246;SHT30;57637;49.272;8.590;2023-05-07T11:35:56;24.55;50.81
70246;SHT30;57637;49.272;8.590;2023-05-07T11:38:22;24.76;51.35
70246;SHT30;57637;49.272;8.590;2023-05-07T11:40:51;25.14;50.32
70246;SHT30;57637;49.272;8.590;2023-05-07T11:43:18;24.91;51.12
70246;SHT30;57637;49.272;8.590;2023-05-07T11:45:47;24.49;50.48
70246;SHT30;57637;49.272;8.590;2023-05-07T11:48:13;24.67;50.42
70246;SHT30;57637;49.272;8.590;2023-05-07T11:50:53;24.88;50.32
70246;SHT30;57637;49.272;8.590;2023-05-07T11:53:25;24.77;49.72
70246;SHT30;57637;49.272;8.590;2023-05-07T11:55:53;24.86;50.30
70246;SHT30;57637;49.272;8.590;2023-05-07T11:58:22;25.11;50.37
70246;SHT30;57637;49.272;8.590;2023-05-07T12:00:53;25.57;50.17
70246;SHT30;57637;49.272;8.590;2023-05-07T12:03:19;26.36;47.94
70246;SHT30;57637;49.272;8.590;2023-05-07T12:05:45;26.64;47.69
70246;SHT30;57637;49.272;8.590;2023-05-07T12:08:18;26.36;47.76
70246;SHT30;57637;49.272;8.590;2023-05-07T12:10:45;25.07;50.18
70246;SHT30;57637;49.272;8.590;2023-05-07T12:15:41;24.80;50.18
70246;SHT30;57637;49.272;8.590;2023-05-07T12:18:07;24.65;50.24
70246;SHT30;57637;49.272;8.590;2023-05-07T12:20:34;24.52;50.64
70246;SHT30;57637;49.272;8.590;2023-05-07T12:23:01;24.26;50.86
70246;SHT30;57637;49.272;8.590;2023-05-07T12:25:26;24.93;50.35
70246;SHT30;57637;49.272;8.590;2023-05-07T12:27:54;24.73;50.19
70246;SHT30;57637;49.272;8.590;2023-05-07T12:30:20;25.21;49.90
70246;SHT30;57637;49.272;8.590;2023-05-07T12:32:45;25.26;50.75
70246;SHT30;57637;49.272;8.590;2023-05-07T12:35:11;25.42;49.75
70246;SHT30;57637;49.272;8.590;2023-05-07T12:37:36;25.33;49.37
70246;SHT30;57637;49.272;8.590;2023-05-07T12:40:05;25.11;50.01
70246;SHT30;57637;49.272;8.590;2023-05-07T12:42:33;24.93;49.26
70246;SHT30;57637;49.272;8.590;2023-05-07T12:45:07;24.94;50.20
70246;SHT30;57637;49.272;8.590;2023-05-07T12:47:43;24.94;50.62
70246;SHT30;57637;49.272;8.590;2023-05-07T12:50:10;25.03;50.63
70246;SHT30;57637;49.272;8.590;2023-05-07T12:52:36;24.72;50.92
70246;SHT30;57637;49.272;8.590;2023-05-07T12:55:05;24.94;50.19
70246;SHT30;57637;49.272;8.590;2023-05-07T12:57:39;24.94;50.31
70246;SHT30;57637;49.272;8.590;2023-05-07T13:00:06;25.17;49.98
70246;SHT30;57637;49.272;8.590;2023-05-07T13:02:41;25.14;49.99
70246;SHT30;57637;49.272;8.590;2023-05-07T13:05:09;24.98;50.67
70246;SHT30;57637;49.272;8.590;2023-05-07T13:07:35;25.14;51.17
70246;SHT30;57637;49.272;8.590;2023-05-07T13:10:02;25.23;50.81
70246;SHT30;57637;49.272;8.590;2023-05-07T13:12:27;25.40;50.17
70246;SHT30;57637;49.272;8.590;2023-05-07T13:14:53;25.03;50.78
70246;SHT30;57637;49.272;8.590;2023-05-07T13:17:18;25.11;50.08
70246;SHT30;57637;49.272;8.590;2023-05-07T13:19:44;25.07;50.56
70246;SHT30;57637;49.272;8.590;2023-05-07T13:22:09;25.28;50.48
70246;SHT30;57637;49.272;8.590;2023-05-07T13:24:35;25.04;50.28
70246;SHT30;57637;49.272;8.590;2023-05-07T13:27:01;24.57;49.80
70246;SHT30;57637;49.272;8.590;2023-05-07T13:29:26;24.36;50.26
70246;SHT30;57637;49.272;8.590;2023-05-07T13:31:56;24.84;49.87
70246;SHT30;57637;49.272;8.590;2023-05-07T13:34:21;24.80;50.47
70246;SHT30;57637;49.272;8.590;2023-05-07T13:36:47;24.52;51.15
70246;SHT30;57637;49.272;8.590;2023-05-07T13:39:12;24.77;51.38
70246;SHT30;57637;49.272;8.590;2023-05-07T13:41:37;24.84;50.38
70246;SHT30;57637;49.272;8.590;2023-05-07T13:44:03;24.62;51.15
70246;SHT30;57637;49.272;8.590;2023-05-07T13:46:29;24.69;50.68
70246;SHT30;57637;49.272;8.590;2023-05-07T13:48:55;24.60;50.90
70246;SHT30;57637;49.272;8.590;2023-05-07T13:51:20;24.93;50.93
70246;SHT30;57637;49.272;8.590;2023-05-07T13:53:46;24.63;50.71
70246;SHT30;57637;49.272;8.590;2023-05-07T13:56:12;24.48;51.51
70246;SHT30;57637;49.272;8.590;2023-05-07T13:58:37;24.70;51.29
70246;SHT30;57637;49.272;8.590;2023-05-07T14:01:02;24.25;51.93
70246;SHT30;57637;49.272;8.590;2023-05-07T14:03:28;24.19;56.19
70246;SHT30;57637;49.272;8.590;2023-05-07T14:05:54;22.83;62.57
70246;SHT30;57637;49.272;8.590;2023-05-07T14:08:20;21.96;66.34
70246;SHT30;57637;49.272;8.590;2023-05-07T14:10:46;21.30;69.28
70246;SHT30;57637;49.272;8.590;2023-05-07T14:13:11;20.72;71.27
70246;SHT30;57637;49.272;8.590;2023-05-07T14:15:37;20.01;72.75
70246;SHT30;57637;49.272;8.590;2023-05-07T14:18:02;19.14;73.44
70246;SHT30;57637;49.272;8.590;2023-05-07T14:20:28;18.90;74.14
70246;SHT30;57637;49.272;8.590;2023-05-07T14:22:55;18.64;74.98
70246;SHT30;57637;49.272;8.590;2023-05-07T14:25:23;18.37;77.19
70246;SHT30;57637;49.272;8.590;2023-05-07T14:27:49;18.27;76.77
70246;SHT30;57637;49.272;8.590;2023-05-07T14:30:14;17.82;77.62
70246;SHT30;57637;49.272;8.590;2023-05-07T14:32:40;17.68;77.48
70246;SHT30;57637;49.272;8.590;2023-05-07T14:35:05;17.79;76.39
70246;SHT30;57637;49.272;8.590;2023-05-07T14:37:31;17.55;76.31
70246;SHT30;57637;49.272;8.590;2023-05-07T14:39:56;17.03;78.15
70246;SHT30;57637;49.272;8.590;2023-05-07T14:42:22;16.94;78.87
70246;SHT30;57637;49.272;8.590;2023-05-07T14:44:47;17.15;78.21
70246;SHT30;57637;49.272;8.590;2023-05-07T14:47:13;17.24;77.92
70246;SHT30;57637;49.272;8.590;2023-05-07T14:49:39;17.24;78.18
70246;SHT30;57637;49.272;8.590;2023-05-07T14:52:05;17.20;78.73
70246;SHT30;57637;49.272;8.590;2023-05-07T14:54:33;17.08;78.66
70246;SHT30;57637;49.272;8.590;2023-05-07T14:57:00;17.00;78.68
70246;SHT30;57637;49.272;8.590;2023-05-07T14:59:26;17.07;78.92
70246;SHT30;57637;49.272;8.590;2023-05-07T15:01:51;17.08;79.23
70246;SHT30;57637;49.272;8.590;2023-05-07T15:04:17;17.02;79.70
70246;SHT30;57637;49.272;8.590;2023-05-07T15:06:42;16.99;79.53
70246;SHT30;57637;49.272;8.590;2023-05-07T15:09:07;16.73;80.62
70246;SHT30;57637;49.272;8.590;2023-05-07T15:11:34;16.51;82.62
70246;SHT30;57637;49.272;8.590;2023-05-07T15:13:59;16.32;82.53
70246;SHT30;57637;49.272;8.590;2023-05-07T15:16:25;16.53;82.59
70246;SHT30;57637;49.272;8.590;2023-05-07T15:18:50;16.57;82.95
70246;SHT30;57637;49.272;8.590;2023-05-07T15:21:16;16.41;84.24
70246;SHT30;57637;49.272;8.590;2023-05-07T15:23:41;16.36;84.45
70246;SHT30;57637;49.272;8.590;2023-05-07T15:26:09;16.30;84.73
70246;SHT30;57637;49.272;8.590;2023-05-07T15:28:34;16.33;84.70
70246;SHT30;57637;49.272;8.590;2023-05-07T15:31:00;16.38;83.63
70246;SHT30;57637;49.272;8.590;2023-05-07T15:33:25;15.97;83.82
70246;SHT30;57637;49.272;8.590;2023-05-07T15:35:51;15.58;84.95
70246;SHT30;57637;49.272;8.590;2023-05-07T15:38:16;15.47;86.03
70246;SHT30;57637;49.272;8.590;2023-05-07T15:40:41;15.50;86.52